Flight Sim Network - KILM Airport Info

    KILM (Wilmington International Airport)  Login to use Map Selector
   

  RUNWAY INFORMATION    |    Airport Elevation : 32ft    |    LAT : 34.2705993652344  /  LON : -77.9026031494141
Runway Number 06 / 24 Runway Width 200' Runway Length 8016'
Lighted Runway Yes Runway StatusOpen Runway Surface Concrete
Runway Number 17 / 35 Runway Width 150' Runway Length 7004'
Lighted Runway Yes Runway StatusOpen Runway Surface Asphalt
  CLOSE ALTERNATE AIRPORTS
ICAODistanceAirport NameLongest RWRW SurfaceMAP
NC189NMBrickhouse Field3000FTDirt
77NC12NMWinnabow Airport3500FTAsphalt
9NC613NMSandy Run Acres Airport3200FTGrass
7NC116NMStag Air Park4000FTDirt
01NC20NMTopsail Airpark3200FTAsphalt
KSUT22NMBrunswick County Airport4003FTAsphalt
N2123NMHolly Ridge/Topsail Island Airport3600FTDirt
14NC23NMCamp Davis Mcolf Airport5000FTConcrete
NC4323NMBear Pen Airport6000FTDirt
NC6525NMYonder Airport3200FTDirt
  AIRPORT WEATHER
80°F | 27°C
Temperature
82%
Humidity
30" | 1020mb
Pressure
10sm
Visibility
VFR
Flight Rules
FEW @ 4100ft
Initial Clouds
FAIR
Conditions
Wind Info
7/23/24 16:53Z
Updated

KILM 231653Z 22004KT 10SM FEW041 SCT100 27/24 A3013 RMK AO2 LTG DSNT SW RAE50 SLP202 P0001 T02720239
  AIRPORT FREQUENCIES
NameFrequency
ATIS121.100
CLEARANCE121.900
GROUND121.900
TOWER119.900
UNICOM122.950
MULTICOM119.900
APPROACH118.250
DEPARTURE118.250
IILM (RWY 35)110.300

Powered by Virtual Airlines Manager